TAF and METAR

METAR for Statfjord A - Oil Platform

ENSF 010920Z AUTO 24022G32KT 9999NDV BKN010/// BKN038/// 09/06 Q1029 W///S5
Report created 1. mar 10:20
report generated by an automatic observation system. wind 22 knots from WSW (240°) with gusts up to 32 knots visibility > 10km broken clouds (~75% cover) at 1000 feet broken clouds (~75% cover) at 3800 feet Temperature 9° with dewpoint at 6° (Humidity 81.48%) Pressure 1029 hPa
No TAF available for Statfjord A - Oil Platform